Bittinger, MD (21522)

6:37 PM EDT on May 30, 2015 (GMT -0400)
1000 Acres/North Glade Cove | | Change Station
CLOSE
Current Station
Personal Weather Station
Location: Swanton, MD
Elevation: 2504 ft
Nearby Weather Stations

Elev 2504 ft 39.50 °N, 79.27 °W | Updated 7 minutes ago

Overcast
Overcast
72.2 °F
Feels Like 72 °F
N
1.0
Wind Variable Wind from ENE
Gusts 4.0 mph

Today
High -- | Low -- °F
--% Chance of Precip.
Yesterday
High -- | Low -- °F
Precip. -- in
5:52 AM 8:36 PM
Waxing Gibbous, 92% visible
Pressure 30.16 in
Visibility 3.0 miles
Clouds Scattered Clouds 1200 ft
Scattered Clouds 3800 ft
Mostly Cloudy 7000 ft
Heat Index 72 °F
Dew Point 66 °F
Humidity 81%
Rainfall 0.00 in
Snow Depth Not available.
UV 1 out of 12
Pollen 6.90 out of 12
Air Quality Not available.
Flu Activity Sporadic
METAR K2G4 302215Z AUTO 15006KT 3SM BR SCT012 SCT038 BKN070 20/20 A3016 RMK AO1

More Conditions Fewer Conditions

Pressure 30.16 in
Visibility 3.0 miles
Clouds Scattered Clouds 1200 ft
Scattered Clouds 3800 ft
Mostly Cloudy 7000 ft
Heat Index 72 °F
Dew Point 66 °F
Humidity 81%
Rainfall 0.00 in
Snow Depth Not available.
UV 1 out of 12
Pollen 6.90 out of 12
Air Quality Not available.
Flu Activity Sporadic
METAR K2G4 302215Z AUTO 15006KT 3SM BR SCT012 SCT038 BKN070 20/20 A3016 RMK AO1

More Conditions Fewer Conditions

10-Day Weather Forecast

Almanac

Astronomy

May. 30, 2015 Rise Set
Actual Time
Civil Twilight
Nautical Twilight
Astronomical Twilight
Moon
Length of Visible Light
Length of Day
Tomorrow will be .
, % of the Moon is Illuminated

Today's Extremes

State Highs State Lows

Community

WunderPhotos

Upload Photos

1,825,602 photos uploaded!

WunderBlogs® & News

Nearby

Air Quality

  Air Quality AQ Index Pollutant
Not available.

Snow Depth

Station Depth Elevation

Earthquake Activity

City Distance Mag. Time & Date
Minimum magnitude displayed is 2.5.

Coastal Water Temperatures

Place Temperature

Stations

Nearby Weather Stations

Station Location Temp. Windchill Dew Point Humidity Wind Precip. Elev Updated Type